Data for 06/09/2016

Time Sea-Level Adjusted Pressure Absolute Pressure Temperature Relative Humidity Dew Point   
(mb) (inHg) (mb) (inHg) (C) (F) (%) (C) (F)
00:05 1012 29.88 841 24.83 19.1 66.3 38 4.7 40.5
00:10 1012 29.88 841 24.83 19.1 66.4 37 4.2 39.6
00:15 1012 29.88 841 24.83 18.9 66 41 5.7 42.2
00:20 1012 29.88 841 24.83 18.1 64.5 44 5.6 42.1
00:25 1012 29.88 841 24.83 17.7 63.9 45 5.7 42.3
00:30 1012 29.88 841 24.83 17.6 63.7 45 5.6 42.1
00:35 1012 29.88 841 24.83 17.7 63.8 45 5.7 42.2
00:40 1012 29.88 841 24.83 17.7 63.8 46 6 42.7
00:45 1012 29.88 841 24.83 17.5 63.4 46 5.9 42.7
00:50 1012 29.88 841 24.83 17.4 63.2 45 5.5 42
00:55 1012 29.88 841 24.83 17.6 63.7 45 5.7 42.2
01:00 1012 29.88 841 24.83 17.6 63.7 46 6 42.8
01:05 1012 29.88 841 24.83 17.2 62.9 47 6 42.7
01:10 1012 29.88 841 24.83 17.1 62.7 48 6 42.9
01:15 1012 29.88 841 24.83 17 62.5 49 6.4 43.5
01:20 1012 29.88 841 24.83 16.9 62.4 47 5.8 42.4
01:25 1012 29.88 841 24.83 17 62.7 49 6.3 43.4
01:30 1012 29.88 841 24.83 16.8 62.2 48 5.9 42.6
01:35 1012 29.88 841 24.83 16.9 62.4 48 5.9 42.5
01:40 1012 29.88 841 24.83 17 62.6 47 5.8 42.4
01:45 1012 29.88 841 24.83 17.2 62.9 48 6 42.8
01:50 1012 29.88 841 24.83 17.1 62.7 48 6.1 43
01:55 1012 29.88 841 24.83 17 62.5 48 6.1 43
02:00 1012 29.88 841 24.83 17 62.6 48 6 42.7
02:05 1012 29.88 841 24.83 17 62.5 48 5.9 42.7
02:10 1012 29.88 841 24.83 16.9 62.5 49 6.2 43.1
02:15 1012 29.88 841 24.83 16.9 62.5 50 6.4 43.6
02:20 1012 29.88 841 24.83 16.8 62.2 50 6.5 43.7
02:25 1012 29.88 842 24.86 16.5 61.8 51 6.5 43.7
02:30 1012 29.88 841 24.83 16.5 61.6 52 6.7 44.1
02:35 1012 29.88 842 24.86 16.4 61.4 53 6.7 44.1
02:40 1012 29.88 842 24.86 16.2 61.2 53 6.7 44.1
02:45 1012 29.88 842 24.86 16.1 60.9 55 7.2 44.9
02:50 1012 29.88 842 24.86 15.6 60.1 56 7 44.6
02:55 1012 29.88 842 24.86 15.4 59.7 57 7.1 44.7
03:00 1013 29.91 842 24.86 15.2 59.4 58 7.1 44.8
03:05 1013 29.91 842 24.86 14.9 58.8 59 7.1 44.9
03:10 1013 29.91 842 24.86 14.7 58.5 60 7.2 45
03:15 1013 29.91 842 24.86 14.8 58.6 59 6.9 44.4
03:20 1013 29.91 842 24.86 15.1 59.2 57 6.7 44
03:25 1013 29.91 842 24.86 15.6 60.1 55 6.8 44.2
03:30 1013 29.91 842 24.86 15.7 60.2 56 7 44.6
03:35 1013 29.91 842 24.86 15.8 60.5 54 6.7 44.1
03:40 1013 29.91 842 24.86 16.1 61 54 6.9 44.5
03:45 1013 29.91 842 24.86 16.1 61 55 7.1 44.7
03:50 1013 29.91 842 24.86 16 60.8 56 7.2 45
03:55 1013 29.91 842 24.86 15.9 60.6 56 7.3 45.2
04:00 1013 29.91 842 24.86 15.9 60.6 57 7.4 45.3
04:05 1013 29.91 842 24.86 16 60.7 56 7.4 45.3
04:10 1013 29.91 842 24.86 15.9 60.7 56 7.4 45.2
04:15 1013 29.91 842 24.86 15.9 60.7 57 7.5 45.5
04:20 1013 29.91 842 24.86 15.8 60.4 58 7.5 45.6
04:25 1013 29.91 842 24.86 15.6 60.1 59 7.6 45.6
04:30 1013 29.91 842 24.86 15.6 60 58 7.4 45.4
04:35 1013 29.91 842 24.86 15.5 60 59 7.7 45.8
04:40 1013 29.91 842 24.86 15.4 59.6 60 7.7 45.8
04:45 1013 29.91 842 24.86 15 58.9 61 7.5 45.6
04:50 1013 29.91 842 24.86 14.9 58.7 62 7.7 45.8
04:55 1013 29.91 842 24.86 14.7 58.5 62 7.5 45.5
05:00 1013 29.91 842 24.86 14.6 58.3 63 7.7 45.9
05:05 1013 29.91 843 24.89 14.5 58 63 7.6 45.6
05:10 1013 29.91 843 24.89 14.4 57.9 63 7.6 45.6
05:15 1014 29.94 843 24.89 14.4 57.8 64 7.6 45.7
05:20 1014 29.94 843 24.89 14.4 57.8 63 7.5 45.6
05:25 1014 29.94 843 24.89 14.4 57.9 63 7.6 45.7
05:30 1014 29.94 843 24.89 14.4 57.9 64 7.7 45.8
05:35 1014 29.94 843 24.89 14.4 57.9 64 7.8 46
05:40 1014 29.94 843 24.89 14.3 57.7 65 7.9 46.1
05:45 1014 29.94 843 24.89 14.1 57.5 66 7.9 46.1
05:50 1014 29.94 843 24.89 14.3 57.8 65 7.9 46.2
05:55 1014 29.94 843 24.89 14.4 58 65 7.9 46.3
06:00 1014 29.94 843 24.89 14.7 58.5 64 8.1 46.5
06:05 1014 29.94 843 24.89 15 58.9 64 8.2 46.7
06:10 1014 29.94 843 24.89 15.1 59.3 63 8.3 47
06:15 1014 29.94 843 24.89 15.4 59.7 62 8.3 47
06:20 1014 29.94 843 24.89 15.6 60 62 8.5 47.2
06:25 1014 29.94 843 24.89 15.8 60.4 61 8.4 47.2
06:30 1014 29.94 843 24.89 16 60.7 61 8.5 47.4
06:35 1014 29.94 843 24.89 16.1 61 60 8.5 47.3
06:40 1014 29.94 843 24.89 16.4 61.6 60 8.6 47.5
06:45 1014 29.94 843 24.89 16.8 62.2 59 8.8 47.9
06:50 1014 29.94 843 24.89 17.2 62.9 58 8.9 48
06:55 1014 29.94 843 24.89 17.4 63.4 57 8.8 47.9
07:00 1014 29.94 843 24.89 18.1 64.5 55 8.9 48
07:05 1014 29.94 843 24.89 17.9 64.2 55 8.9 48.1
07:10 1014 29.94 843 24.89 18.3 64.9 52 8.4 47.2
07:15 1014 29.94 843 24.89 18.9 66 52 8.9 48
07:20 1014 29.94 843 24.89 19.2 66.6 51 8.9 48.1
07:25 1014 29.94 843 24.89 19.7 67.4 50 9.2 48.5
07:30 1014 29.94 843 24.89 19.8 67.6 50 9.1 48.3
07:35 1014 29.94 843 24.89 19.9 67.7 49 9 48.1
07:40 1014 29.94 843 24.89 19.8 67.6 50 9.1 48.4
07:45 1014 29.94 843 24.89 19.4 66.9 50 8.9 48
07:50 1014 29.94 843 24.89 19.5 67.2 50 8.9 47.9
07:55 1014 29.94 843 24.89 20.3 68.5 48 9 48.2
08:00 1014 29.94 843 24.89 20 68.1 49 9 48.2
08:05 1014 29.94 843 24.89 20 68 49 9.1 48.4
08:10 1014 29.94 843 24.89 20 67.9 48 8.6 47.5
08:15 1014 29.94 843 24.89 19.9 67.9 48 8.8 47.9
08:20 1014 29.94 843 24.89 20.1 68.2 48 8.8 47.9
08:25 1014 29.94 843 24.89 20.4 68.8 49 9.6 49.2
08:30 1014 29.94 843 24.89 20.1 68.1 52 10.2 50.3
08:35 1014 29.94 843 24.89 20.1 68.3 48 9 48.2
08:40 1014 29.94 843 24.89 20.5 68.8 49 9.4 48.9
08:45 1014 29.94 843 24.89 20.2 68.4 47 8.8 47.9
08:50 1014 29.94 843 24.89 20.8 69.4 46 9 48.2
08:55 1014 29.94 843 24.89 20.8 69.5 46 9 48.2
09:00 1014 29.94 843 24.89 21.6 70.9 43 8.6 47.5
09:05 1014 29.94 843 24.89 22.2 71.9 43 9.2 48.6
09:10 1014 29.94 843 24.89 22 71.6 45 9.8 49.7
09:15 1014 29.94 843 24.89 21.8 71.2 45 9.6 49.3
09:20 1013 29.91 843 24.89 21.6 70.9 44 9.1 48.4
09:25 1013 29.91 843 24.89 22.2 72 44 9.6 49.3
09:30 1013 29.91 843 24.89 22.1 71.8 44 9.4 49
09:35 1013 29.91 843 24.89 22 71.5 44 9.2 48.6
09:40 1013 29.91 843 24.89 22.7 72.8 42 9.2 48.5
09:45 1013 29.91 843 24.89 22.9 73.1 42 9.5 49.1
09:50 1013 29.91 843 24.89 22.7 72.9 40 8.8 47.9
09:55 1013 29.91 842 24.86 23.2 73.7 42 9.6 49.2
10:00 1013 29.91 842 24.86 23.4 74 39 8.8 47.8
10:05 1013 29.91 842 24.86 23.8 74.8 38 8.9 48.1
10:10 1013 29.91 842 24.86 23.6 74.5 37 8.4 47.2
10:15 1013 29.91 842 24.86 23.8 74.8 39 9.1 48.3
10:20 1013 29.91 842 24.86 23.8 74.8 38 8.7 47.6
10:25 1013 29.91 842 24.86 23.9 75.1 36 8.2 46.7
10:30 1013 29.91 842 24.86 24.4 75.8 38 9.3 48.7
10:35 1013 29.91 842 24.86 24.4 75.9 36 8.5 47.4
10:40 1013 29.91 842 24.86 24.5 76.2 36 8.7 47.7
10:45 1013 29.91 842 24.86 24.8 76.6 33 7.6 45.8
10:50 1013 29.91 842 24.86 24.8 76.6 33 7.8 46.1
10:55 1013 29.91 842 24.86 24.5 76.2 34 7.7 45.9
11:00 1013 29.91 842 24.86 24 75.1 36 8 46.4
11:05 1013 29.91 842 24.86 24.2 75.6 37 8.9 48
11:10 1013 29.91 842 24.86 24.4 76 37 9.1 48.3
11:15 1013 29.91 842 24.86 25 77 34 8.3 46.9
11:20 1013 29.91 842 24.86 25.1 77.2 35 8.9 48
11:25 1013 29.91 842 24.86 25.1 77.2 36 9.1 48.3
11:30 1013 29.91 842 24.86 25.1 77.1 35 8.9 48.1
11:35 1013 29.91 842 24.86 25.4 77.7 33 8.3 46.9
11:40 1013 29.91 842 24.86 25.9 78.6 34 8.9 48
11:45 1013 29.91 842 24.86 26.1 78.9 34 9.1 48.3
11:50 1013 29.91 842 24.86 25.2 77.3 34 8.3 47
11:55 1013 29.91 842 24.86 25.7 78.3 33 8.3 47
12:00 1013 29.91 842 24.86 26.2 79.2 31 7.9 46.3
12:05 1012 29.88 842 24.86 26.6 79.8 31 8.1 46.6
12:10 1012 29.88 841 24.83 26.1 78.9 33 8.8 47.8
12:15 1012 29.88 842 24.86 26 78.7 31 7.9 46.2
12:20 1012 29.88 842 24.86 26.5 79.7 32 8.6 47.4
12:25 1012 29.88 841 24.83 27.5 81.4 30 8.6 47.4
12:30 1012 29.88 841 24.83 27.4 81.4 30 8.8 47.8
12:35 1012 29.88 841 24.83 27.4 81.2 30 8.8 47.8
12:40 1012 29.88 841 24.83 26.9 80.4 31 8.5 47.3
12:45 1012 29.88 841 24.83 27.5 81.5 31 9 48.1
12:50 1012 29.88 841 24.83 27.5 81.5 30 8.9 47.9
12:55 1012 29.88 841 24.83 27.3 81.1 31 8.9 48
13:00 1012 29.88 841 24.83 27.8 82.1 31 9.3 48.8
13:05 1012 29.88 841 24.83 26.8 80.3 31 8.6 47.4
13:10 1012 29.88 841 24.83 26.1 79 32 8.6 47.5
13:15 1011 29.85 841 24.83 26.6 79.9 32 9 48.3
13:20 1011 29.85 840 24.81 25.6 78.2 33 8.6 47.5
13:25 1011 29.85 840 24.81 25.7 78.2 33 8.7 47.6
13:30 1011 29.85 840 24.81 26.6 79.9 31 8.2 46.8
13:35 1011 29.85 840 24.81 27.4 81.3 29 8.3 47
13:40 1011 29.85 840 24.81 27.7 81.9 28 8 46.5
13:45 1011 29.85 840 24.81 28 82.3 30 9 48.2
13:50 1011 29.85 841 24.83 28 82.4 28 8.3 47
13:55 1011 29.85 841 24.83 27.2 81 31 8.8 47.9
14:00 1011 29.85 841 24.83 27.2 80.9 29 7.9 46.2
14:05 1011 29.85 840 24.81 27.2 81 29 7.8 46.1
14:10 1011 29.85 840 24.81 27.5 81.4 28 7.7 45.9
14:15 1011 29.85 840 24.81 27 80.5 29 7.8 46
14:20 1011 29.85 840 24.81 26.3 79.3 31 8.2 46.8
14:25 1011 29.85 840 24.81 26.5 79.7 30 7.7 45.9
14:30 1011 29.85 840 24.81 26.8 80.2 31 8.3 46.9
14:35 1011 29.85 840 24.81 26.4 79.5 31 8.3 46.9
14:40 1011 29.85 841 24.83 25.7 78.3 31 7.8 46.1
14:45 1011 29.85 841 24.83 25.2 77.4 34 8.4 47.1
14:50 1012 29.88 841 24.83 25.2 77.3 36 9.2 48.5
14:55 1012 29.88 841 24.83 24.8 76.6 37 9.4 49
15:00 1012 29.88 841 24.83 24.6 76.2 37 9.2 48.5
15:05 1012 29.88 841 24.83 24.1 75.3 39 9.5 49.1
15:10 1012 29.88 841 24.83 23.7 74.6 40 9.3 48.8
15:15 1012 29.88 841 24.83 23.9 75 39 9.4 48.9
15:20 1012 29.88 841 24.83 24.1 75.4 40 9.9 49.8
15:25 1012 29.88 841 24.83 24.1 75.3 40 9.9 49.9
15:30 1012 29.88 841 24.83 24 75.2 41 10.3 50.6
15:35 1012 29.88 841 24.83 24.2 75.6 41 10.3 50.6
15:40 1012 29.88 841 24.83 24.1 75.3 39 9.5 49.2
15:45 1012 29.88 841 24.83 23.7 74.7 37 8.3 46.9
15:50 1012 29.88 841 24.83 23.7 74.7 39 9.2 48.5
15:55 1012 29.88 841 24.83 23.3 74 38 8.4 47.2
16:00 1012 29.88 841 24.83 23.2 73.7 37 8 46.5
16:05 1012 29.88 841 24.83 23.3 74 38 8.3 47
16:10 1012 29.88 841 24.83 23.6 74.6 38 8.5 47.3
16:15 1012 29.88 841 24.83 24.5 76.1 36 8.6 47.5
16:20 1011 29.85 841 24.83 24.1 75.5 36 8.4 47.1
16:25 1012 29.88 841 24.83 23.8 74.8 36 8.2 46.7
16:30 1012 29.88 841 24.83 23.3 73.9 38 8.6 47.4
16:35 1012 29.88 841 24.83 23 73.5 40 8.8 47.9
16:40 1012 29.88 841 24.83 22.7 72.8 44 10.1 50.1
16:45 1012 29.88 841 24.83 22.2 72 42 8.9 48.1
16:50 1012 29.88 841 24.83 22.5 72.6 38 7.7 45.9
16:55 1012 29.88 841 24.83 22.6 72.6 39 8 46.4
17:00 1012 29.88 841 24.83 22.6 72.7 41 8.8 47.9
17:05 1012 29.88 841 24.83 22.7 72.9 42 9.4 49
17:10 1012 29.88 841 24.83 22.3 72.1 43 9.2 48.5
17:15 1012 29.88 841 24.83 22 71.6 44 9.3 48.7
17:20 1012 29.88 841 24.83 22.2 71.9 42 8.8 47.8
17:25 1012 29.88 841 24.83 22.1 71.7 43 9 48.3
17:30 1012 29.88 841 24.83 22 71.7 42 8.6 47.4
17:35 1012 29.88 841 24.83 22.4 72.4 41 8.5 47.4
17:40 1012 29.88 841 24.83 22.9 73.2 40 8.8 47.8
17:45 1012 29.88 841 24.83 22.8 73.1 41 9 48.1
17:50 1012 29.88 841 24.83 22.8 73 41 9.1 48.3
17:55 1012 29.88 841 24.83 22.1 71.9 48 10.8 51.4
18:00 1012 29.88 841 24.83 21.2 70.2 50 10.5 50.9
18:05 1012 29.88 841 24.83 21.3 70.3 49 10.2 50.3
18:10 1012 29.88 841 24.83 21.2 70.1 50 10.6 51
18:15 1012 29.88 841 24.83 21.2 70.1 47 9.7 49.5
18:20 1012 29.88 841 24.83 21.2 70.2 40 7.2 45
18:25 1012 29.88 841 24.83 21.2 70.2 40 7.4 45.3
18:30 1012 29.88 842 24.86 21.1 70.1 43 8.3 47
18:35 1013 29.91 842 24.86 21 69.8 48 9.8 49.6
18:40 1013 29.91 842 24.86 20.8 69.4 51 10.3 50.6
18:45 1013 29.91 842 24.86 20.7 69.3 52 10.5 51
18:50 1013 29.91 842 24.86 20.7 69.3 52 10.6 51.1
18:55 1013 29.91 842 24.86 20.7 69.3 53 11 51.8
19:00 1013 29.91 842 24.86 20.5 69 54 11.1 52
19:05 1013 29.91 842 24.86 20.2 68.4 56 11.3 52.3
19:10 1013 29.91 842 24.86 19.6 67.3 58 11.3 52.3
19:15 1013 29.91 842 24.86 19.3 66.7 57 10.8 51.4
19:20 1013 29.91 843 24.89 19.4 66.9 55 10.3 50.6
19:25 1014 29.94 843 24.89 19.4 66.9 53 9.6 49.3
19:30 1014 29.94 843 24.89 19.4 66.9 56 10.4 50.8
19:35 1014 29.94 843 24.89 19.3 66.7 56 10.3 50.6
19:40 1014 29.94 843 24.89 19.1 66.3 56 10.3 50.5
19:45 1014 29.94 843 24.89 19.3 66.7 53 9.6 49.2
19:50 1014 29.94 843 24.89 19.2 66.6 55 10.1 50.3
19:55 1014 29.94 843 24.89 19.2 66.6 55 10.1 50.2
20:00 1014 29.94 843 24.89 19.4 66.9 55 10.3 50.6
20:05 1014 29.94 843 24.89 19.2 66.5 60 11.2 52.2
20:10 1014 29.94 843 24.89 19.2 66.5 54 9.9 49.8
20:15 1014 29.94 843 24.89 19.3 66.7 53 9.7 49.4
20:20 1014 29.94 843 24.89 19.3 66.7 54 9.7 49.5
20:25 1014 29.94 843 24.89 19.1 66.3 55 9.8 49.7
20:30 1014 29.94 843 24.89 18.8 65.9 56 9.9 49.8
20:35 1014 29.94 843 24.89 18.7 65.7 56 10 50
20:40 1014 29.94 844 24.92 18.5 65.2 58 10 50
20:45 1014 29.94 844 24.92 18.2 64.7 57 9.7 49.4
20:50 1015 29.97 844 24.92 18.1 64.5 58 9.8 49.6
20:55 1015 29.97 844 24.92 17.9 64.2 59 9.9 49.7
21:00 1015 29.97 844 24.92 17.6 63.8 59 9.6 49.3
21:05 1015 29.97 844 24.92 17.6 63.6 60 9.7 49.5
21:10 1015 29.97 844 24.92 17.5 63.4 59 9.5 49.1
21:15 1015 29.97 844 24.92 17.4 63.3 59 9.3 48.7
21:20 1015 29.97 844 24.92 17.3 63.1 59 9.3 48.8
21:25 1015 29.97 844 24.92 17.1 62.8 60 9.4 48.9
21:30 1015 29.97 844 24.92 16.9 62.4 61 9.4 49
21:35 1015 29.97 844 24.92 16.8 62.2 64 9.9 49.8
21:40 1015 29.97 844 24.92 16.6 61.8 63 9.5 49.2
21:45 1015 29.97 844 24.92 16.4 61.4 63 9.5 49.1
21:50 1015 29.97 844 24.92 16 60.8 67 9.9 49.8
21:55 1015 29.97 844 24.92 15.8 60.5 65 9.2 48.6
22:00 1015 29.97 844 24.92 16 60.7 63 8.9 48.1
22:05 1015 29.97 844 24.92 16.1 60.9 63 9 48.3
22:10 1015 29.97 844 24.92 16.1 61 62 8.8 47.9
22:15 1015 29.97 845 24.95 16.2 61.1 61 8.6 47.5
22:20 1015 29.97 845 24.95 16.2 61.2 60 8.6 47.4
22:25 1015 29.97 845 24.95 16.2 61.2 60 8.6 47.4
22:30 1016 30 845 24.95 16.1 61 60 8.5 47.3
22:35 1016 30 845 24.95 16.1 61 60 8.5 47.3
22:40 1016 30 845 24.95 16 60.8 61 8.6 47.5
22:45 1016 30 845 24.95 15.6 60.1 63 8.7 47.7
22:50 1016 30 845 24.95 15.3 59.5 65 8.7 47.7
22:55 1016 30 845 24.95 15 59.1 67 9.1 48.3
23:00 1016 30 845 24.95 15.3 59.6 64 8.6 47.4
23:05 1016 30 845 24.95 15.6 60.1 61 8.3 46.9
23:10 1016 30 845 24.95 15.5 59.9 64 8.8 47.8
23:15 1016 30 845 24.95 15 59 64 8.3 47
23:20 1016 30 845 24.95 15 58.9 63 8.1 46.6
23:25 1016 30 845 24.95 15.1 59.2 63 8.1 46.6
23:30 1016 30 845 24.95 15 59 63 8.1 46.6
23:35 1016 30 845 24.95 14.9 58.8 63 8 46.4
23:40 1016 30 845 24.95 14.9 58.8 62 7.8 46
23:45 1016 30 845 24.95 15 59.1 62 7.9 46.2
23:50 1016 30 845 24.95 15 59 62 7.8 46.1
23:55 1016 30 845 24.95 14.9 58.9 61 7.7 45.8
24:00 1016 30 845 24.95 15.2 59.3 68 9.4 48.8